Ampton, United Kingdom
Current Conditions -  °F | °C
As of 7:58 PM on Thursday 23 Oct 2014 (Local Time) from EGUL Reporting Station
Overcast Overcast  
Wind Chill: 59°   Ceiling: 7000
Heat Index: 59°   Visibility: 6mi
Dew Point: 59°   Wind: 9mph
Humidity: 100%   Direction: 200°SSW
Pressure: 29.99"   Gusts: NA
Location:  52.33°N, 0.85°E
Report Text: EGUL 231858Z AUTO 20008KT 9999 SCT040 OVC070 15/15 A2999 RMK AO2 SLP159 T01520152
Loading
Personal Weather Stations






























Interactive Weather Map New forecast layout! Learn more

10-Day Weather Forecast

Advertisements
Track Severe Weather on mobile